SBCP/CAW METAR and TAF weather

Enter ICAO airport designator
Station Type Date Time Source
SBCP METAR 2020/11/28 20:00 UTC NOAA

SBCP 282000Z 07020KT 9999 SCT020 27/21 Q1019


Station Type Date Time Source
SBCP Decoded METAR 2020/11/28 20:00 UTC NOAA

Campos, Brazil (SBCP) 21-45S 041-20W 11M
Nov 28, 2020 - 03:00 PM EST / 2020.11.28 2000 UTC
Wind: from the ENE (070 degrees) at 23 MPH (20 KT):0
Visibility: greater than 7 mile(s):0
Sky conditions: partly cloudy
Temperature: 80 F (27 C)
Dew Point: 69 F (21 C)
Relative Humidity: 69%
Pressure (altimeter): 30.09 in. Hg (1019 hPa)
ob: SBCP 282000Z 07020KT 9999 SCT020 27/21 Q1019
cycle: 20

Station Type Date Time Source
SBCP TAF 2020/11/28 18:49 UTC NOAA

TAF SBCP 281500Z 2818/2906 07015KT 9999 FEW020 TX28/2818Z TN25/2821Z
RMK PHD

Example: see airport list